アルハンゲリスク の空港の天気 - METARとTAF

Arhangel'Sk ( ULAA / ARH ) - ロシア アルハンゲリスク
飛行場実況気象(Metar)
観測時間05/28 12:00 MSK (05/28 09:00 UTC)
風向・風速東南東 6m/s
視程10km以上
天気現象
全天の4割程度の雲 雲底高度 700m
気温18℃
湿度52%
気圧1000hPa
METARULAA 280900Z 11006MPS 070V150 9999 SCT023CB 18/08 Q1000 R08/CLRD70 NOSIG RMK QFE749/0999
過去の天気等 Google飛行場航空写真 Wunderground天気予報

過去48時間のMETAR

飛行場予報(TAF)
発表時間: 5/28 11:00 MSK (5/28 08:00 UTC)
予報対象時間: 28日12時 MSK ~ 29日12時 MSK
風向・風速東南東 3m/s 瞬間風速 9m/s
視程10km以上
全天の8割程度の雲 雲底高度 610m
28日12時 MSK ~ 28日18時 MSK に一時的に
風向・風速東 6m/s 瞬間風速 13m/s
視程3000m
天気現象弱い雷雨
少しの雲 雲底高度 180m
全天の8割程度の積乱雲 雲底高度 490m
29日6時 MSK ~ 29日12時 MSK に一時的に
視程6000m
天気現象弱いしゅう雨
全天の8割程度の積乱雲 雲底高度 490m
TAF ULAA 280800Z 2809/2909 12003G09MPS 9999 BKN020
TEMPO 2809/2815 08006G13MPS 3000 -TSRA FEW006 BKN016CB
TEMPO 2903/2909 6000 -SHRA BKN016CB